createdAt,value
2023-10-23T00:00:14.622Z,10.95
2023-10-23T00:03:22.927Z,6.78
2023-10-23T00:05:56.416Z,8.00
2023-10-23T00:08:28.844Z,7.65
2023-10-23T00:11:01.459Z,3.78
2023-10-23T00:13:36.151Z,5.63
2023-10-23T00:16:12.553Z,9.25
2023-10-23T00:18:45.711Z,3.58
2023-10-23T00:21:20.581Z,12.60
2023-10-23T00:23:52.934Z,4.72
2023-10-23T00:26:26.314Z,5.80
2023-10-23T00:28:58.715Z,21.15
2023-10-23T00:31:35.297Z,7.20
2023-10-23T00:34:07.661Z,9.65
2023-10-23T00:36:40.859Z,4.47
2023-10-23T00:39:12.783Z,5.88
2023-10-23T00:41:46.030Z,4.90
2023-10-23T00:44:20.694Z,5.18
2023-10-23T00:47:01.158Z,6.90
2023-10-23T00:50:10.536Z,9.90
2023-10-23T00:52:49.350Z,16.92
2023-10-23T00:55:25.910Z,8.68
2023-10-23T00:58:16.288Z,5.47
2023-10-23T01:00:52.466Z,6.07
2023-10-23T01:03:33.377Z,8.55
2023-10-23T01:06:14.880Z,4.78
2023-10-23T01:08:50.500Z,16.52
2023-10-23T01:11:22.870Z,9.73
2023-10-23T01:13:55.156Z,9.30
2023-10-23T01:16:28.168Z,5.35
2023-10-23T01:19:03.474Z,5.32
2023-10-23T01:21:35.544Z,7.90
2023-10-23T01:24:12.210Z,7.43
2023-10-23T01:26:52.614Z,5.32
2023-10-23T01:29:24.750Z,8.75
2023-10-23T01:31:56.933Z,10.68
2023-10-23T01:34:29.244Z,8.95
2023-10-23T01:37:01.827Z,14.38
2023-10-23T01:39:34.153Z,11.82
2023-10-23T01:42:09.852Z,10.05
2023-10-23T01:44:42.537Z,9.85
2023-10-23T01:47:16.085Z,10.75
2023-10-23T01:49:49.262Z,11.35
2023-10-23T01:52:21.884Z,9.45
2023-10-23T01:54:55.537Z,8.40
2023-10-23T01:57:31.436Z,10.63
2023-10-23T02:00:07.400Z,11.32
2023-10-23T02:02:39.667Z,7.18
2023-10-23T02:05:12.901Z,17.80
2023-10-23T02:07:44.762Z,6.70
2023-10-23T02:10:17.044Z,13.98
2023-10-23T02:12:52.881Z,8.38
2023-10-23T02:15:25.245Z,9.90
2023-10-23T02:17:57.543Z,14.07
2023-10-23T02:20:30.914Z,8.98
2023-10-23T02:23:03.368Z,9.90
2023-10-23T02:25:35.763Z,7.45
2023-10-23T02:28:10.506Z,11.70
2023-10-23T02:30:43.423Z,17.00
2023-10-23T02:33:15.786Z,12.82
2023-10-23T02:35:48.319Z,10.65
2023-10-23T02:38:20.661Z,10.95
2023-10-23T02:40:56.168Z,11.27
2023-10-23T02:43:31.527Z,9.77
2023-10-23T02:46:06.119Z,6.95
2023-10-23T02:48:38.462Z,7.93
2023-10-23T02:51:11.011Z,8.25
2023-10-23T02:53:43.336Z,11.90
2023-10-23T02:56:16.950Z,9.25
2023-10-23T02:58:52.217Z,9.18
2023-10-23T03:01:26.932Z,10.65
2023-10-23T03:03:59.494Z,7.13
2023-10-23T03:06:32.361Z,14.52
2023-10-23T03:09:06.810Z,9.27
2023-10-23T03:11:40.947Z,7.55
2023-10-23T03:14:15.885Z,8.32
2023-10-23T03:16:48.815Z,15.70
2023-10-23T03:19:23.992Z,8.43
2023-10-23T03:21:57.924Z,8.52
2023-10-23T03:24:30.109Z,7.93
2023-10-23T03:27:02.282Z,8.43
2023-10-23T03:29:37.008Z,11.23
2023-10-23T03:32:10.668Z,10.20
2023-10-23T03:34:42.567Z,9.65
2023-10-23T03:37:16.343Z,13.35
2023-10-23T03:39:48.790Z,11.20
2023-10-23T03:42:22.242Z,9.65
2023-10-23T03:45:04.005Z,11.35
2023-10-23T03:47:41.732Z,10.60
2023-10-23T03:50:14.289Z,13.93
2023-10-23T03:52:46.598Z,12.57
2023-10-23T03:55:20.681Z,11.27
2023-10-23T03:57:54.051Z,9.90
2023-10-23T04:00:29.064Z,11.52
2023-10-23T04:03:01.561Z,11.68
2023-10-23T04:05:35.516Z,10.00
2023-10-23T04:08:08.116Z,11.50
2023-10-23T04:10:40.119Z,8.35
2023-10-23T04:13:12.296Z,17.05
2023-10-23T04:15:56.894Z,12.40
2023-10-23T04:18:29.223Z,10.85
2023-10-23T04:21:08.846Z,12.38
2023-10-23T04:23:42.655Z,17.98
2023-10-23T04:26:15.246Z,11.27
2023-10-23T04:28:47.671Z,11.98
2023-10-23T04:31:22.380Z,12.85
2023-10-23T04:33:54.739Z,11.25
2023-10-23T04:36:31.107Z,14.15
2023-10-23T04:39:04.173Z,11.48
2023-10-23T04:41:37.480Z,12.50
2023-10-23T04:44:14.323Z,19.20
2023-10-23T04:46:56.063Z,16.80
2023-10-23T04:49:28.557Z,13.45
2023-10-23T04:52:04.347Z,12.70
2023-10-23T04:54:41.492Z,12.50
2023-10-23T04:57:18.057Z,14.40
2023-10-23T04:59:50.359Z,14.15
2023-10-23T05:02:25.418Z,13.07
2023-10-23T05:04:57.684Z,19.00
2023-10-23T05:07:33.160Z,12.35
2023-10-23T05:10:07.113Z,14.77
2023-10-23T05:12:40.428Z,12.63
2023-10-23T05:15:26.379Z,16.80
2023-10-23T05:18:03.531Z,17.15
2023-10-23T05:20:45.146Z,16.00
2023-10-23T05:23:26.747Z,19.63
2023-10-23T05:26:03.082Z,14.40
2023-10-23T05:28:38.447Z,15.52
2023-10-23T05:31:12.327Z,16.23
2023-10-23T05:33:53.472Z,17.88
2023-10-23T05:36:27.885Z,16.30
2023-10-23T05:39:08.714Z,11.98
2023-10-23T05:41:41.712Z,14.98
2023-10-23T05:44:13.999Z,15.75
2023-10-23T05:46:47.399Z,20.20
2023-10-23T05:49:21.912Z,19.10
2023-10-23T05:51:54.074Z,15.75
2023-10-23T05:54:32.338Z,18.98
2023-10-23T05:57:05.232Z,18.30
2023-10-23T05:59:41.360Z,15.88
2023-10-23T06:02:15.676Z,15.00
2023-10-23T06:04:51.787Z,23.85
2023-10-23T06:07:23.951Z,22.48
2023-10-23T06:09:58.010Z,19.50
2023-10-23T06:12:33.107Z,27.58
2023-10-23T06:15:06.326Z,23.65
2023-10-23T06:17:46.057Z,20.95
2023-10-23T06:20:20.735Z,22.65
2023-10-23T06:23:10.294Z,26.15
2023-10-23T06:25:42.425Z,20.95
2023-10-23T06:28:14.682Z,22.25
2023-10-23T06:30:48.826Z,23.42
2023-10-23T06:33:22.326Z,23.90
2023-10-23T06:36:05.138Z,23.08
2023-10-23T06:38:37.976Z,23.92
2023-10-23T06:41:10.753Z,22.17
2023-10-23T06:43:43.249Z,25.27
2023-10-23T06:46:15.577Z,24.73
2023-10-23T06:48:48.748Z,29.92
2023-10-23T06:51:23.345Z,28.33
2023-10-23T06:53:56.146Z,27.42
2023-10-23T06:56:35.120Z,26.42
2023-10-23T06:59:07.451Z,24.80
2023-10-23T07:01:46.201Z,29.55
2023-10-23T07:04:25.569Z,27.67
2023-10-23T07:07:10.907Z,26.73
2023-10-23T07:09:54.900Z,21.15
2023-10-23T07:12:26.932Z,27.50
2023-10-23T07:15:00.190Z,28.05
2023-10-23T07:17:33.588Z,23.55
2023-10-23T07:20:08.602Z,21.63
2023-10-23T07:22:43.163Z,21.63
2023-10-23T07:25:21.005Z,22.20
2023-10-23T07:28:02.690Z,20.50
2023-10-23T07:30:34.918Z,19.55
2023-10-23T07:33:07.238Z,21.33
2023-10-23T07:35:52.632Z,17.90
2023-10-23T07:38:29.299Z,17.35
2023-10-23T07:41:02.622Z,17.83
2023-10-23T07:43:50.857Z,17.88
2023-10-23T07:47:09.867Z,16.50
2023-10-23T07:49:56.493Z,21.63
2023-10-23T07:52:42.015Z,17.42
2023-10-23T07:55:17.554Z,18.65
2023-10-23T07:57:55.493Z,17.85
2023-10-23T08:00:30.335Z,17.55
2023-10-23T08:03:07.323Z,18.23
2023-10-23T08:06:00.881Z,20.35
2023-10-23T08:08:45.806Z,24.75
2023-10-23T08:11:22.767Z,20.40
2023-10-23T08:13:55.764Z,15.63
2023-10-23T08:16:41.134Z,26.73
2023-10-23T08:19:14.540Z,18.17
2023-10-23T08:21:58.861Z,19.35
2023-10-23T08:24:50.080Z,14.02
2023-10-23T08:27:39.801Z,18.75
2023-10-23T08:30:17.204Z,20.80
2023-10-23T08:32:53.215Z,15.63
2023-10-23T08:35:33.887Z,14.68
2023-10-23T08:38:09.326Z,14.13
2023-10-23T08:40:47.323Z,18.70
2023-10-23T08:43:23.841Z,17.98
2023-10-23T08:45:58.745Z,13.45
2023-10-23T08:48:33.642Z,18.27
2023-10-23T08:51:08.661Z,18.85
2023-10-23T08:57:18.644Z,14.27
2023-10-23T08:59:58.963Z,13.95
2023-10-23T09:02:52.060Z,14.32
2023-10-23T09:05:45.841Z,13.77
2023-10-23T09:08:29.047Z,15.32
2023-10-23T09:11:06.323Z,13.77
2023-10-23T09:13:40.325Z,16.23
2023-10-23T09:16:18.178Z,14.35
2023-10-23T09:19:07.308Z,12.27
2023-10-23T09:21:39.567Z,14.00
2023-10-23T09:24:15.493Z,16.77
2023-10-23T09:26:54.162Z,12.75
2023-10-23T09:29:27.765Z,13.05
2023-10-23T09:32:04.883Z,18.10
2023-10-23T09:34:38.244Z,14.57
2023-10-23T09:37:11.269Z,17.65
2023-10-23T09:39:49.403Z,19.33
2023-10-23T09:42:42.243Z,17.60
2023-10-23T09:45:17.962Z,18.88
2023-10-23T09:48:02.780Z,12.50
2023-10-23T09:51:07.404Z,14.27
2023-10-23T09:54:32.085Z,16.83
2023-10-23T09:57:35.804Z,17.70
2023-10-23T10:00:20.963Z,17.50
2023-10-23T10:03:21.539Z,17.58
2023-10-23T10:07:00.850Z,13.57
2023-10-23T10:10:03.229Z,13.57
2023-10-23T10:13:15.092Z,13.02
2023-10-23T10:16:09.939Z,16.27
2023-10-23T10:20:37.967Z,15.63
2023-10-23T10:23:14.612Z,15.32
2023-10-23T10:27:02.242Z,26.85
2023-10-23T10:29:46.524Z,11.60
2023-10-23T10:32:31.239Z,13.27
2023-10-23T10:35:45.158Z,10.25
2023-10-23T10:38:36.647Z,14.02
2023-10-23T10:41:40.802Z,11.68
2023-10-23T10:44:24.446Z,12.20
2023-10-23T10:47:03.263Z,11.30
2023-10-23T10:49:36.171Z,10.27
2023-10-23T10:52:59.169Z,16.77
2023-10-23T10:56:27.689Z,9.13
2023-10-23T10:59:46.217Z,10.15
2023-10-23T11:02:36.609Z,9.13
2023-10-23T11:05:40.257Z,11.02
2023-10-23T11:08:35.731Z,9.68
2023-10-23T11:11:14.690Z,8.75
2023-10-23T11:13:48.448Z,9.85
2023-10-23T11:16:31.820Z,11.80
2023-10-23T11:19:09.810Z,12.30
2023-10-23T11:22:12.479Z,9.68
2023-10-23T11:24:47.992Z,16.13
2023-10-23T11:27:25.207Z,12.65
2023-10-23T11:30:05.252Z,9.95
2023-10-23T11:32:38.749Z,14.20
2023-10-23T11:35:13.061Z,17.48
2023-10-23T11:37:49.489Z,9.50
2023-10-23T11:40:28.417Z,11.52
2023-10-23T11:43:17.507Z,14.93
2023-10-23T11:45:57.516Z,10.02
2023-10-23T11:48:41.008Z,10.27
2023-10-23T11:51:45.844Z,11.13
2023-10-23T11:54:36.411Z,12.60
2023-10-23T11:57:11.052Z,10.50
2023-10-23T11:59:54.749Z,11.63
2023-10-23T12:02:30.726Z,13.52
2023-10-23T12:05:08.824Z,14.05
2023-10-23T12:07:47.057Z,11.65
2023-10-23T12:10:43.069Z,10.60
2023-10-23T12:13:15.705Z,13.57
2023-10-23T12:15:58.432Z,10.55
2023-10-23T12:18:31.687Z,10.48
2023-10-23T12:21:06.690Z,11.95
2023-10-23T12:23:40.573Z,11.30
2023-10-23T12:26:13.528Z,11.93
2023-10-23T12:28:46.689Z,10.20
2023-10-23T12:32:01.588Z,11.32
2023-10-23T12:34:46.414Z,8.88
2023-10-23T12:37:43.449Z,8.50
2023-10-23T12:40:50.543Z,10.77
2023-10-23T12:43:34.092Z,14.65
2023-10-23T12:46:22.040Z,10.27
2023-10-23T12:49:50.372Z,12.75
2023-10-23T12:52:40.717Z,10.13
2023-10-23T12:55:23.041Z,9.52
2023-10-23T12:58:09.125Z,9.63
2023-10-23T13:01:03.923Z,6.63
2023-10-23T13:03:48.321Z,8.60
2023-10-23T13:06:46.139Z,9.68
2023-10-23T13:09:20.781Z,7.00
2023-10-23T13:12:41.213Z,6.70
2023-10-23T13:15:22.302Z,7.30
2023-10-23T13:17:57.797Z,6.97
2023-10-23T13:21:27.307Z,7.57
2023-10-23T13:23:25.060Z,7.60
2023-10-23T13:26:10.123Z,7.47
2023-10-23T13:28:49.435Z,6.43
2023-10-23T13:31:23.608Z,8.63
2023-10-23T13:33:56.680Z,6.88
2023-10-23T13:36:28.768Z,7.28
2023-10-23T13:39:07.674Z,8.23
2023-10-23T13:41:39.894Z,8.80
2023-10-23T13:44:12.659Z,7.93
2023-10-23T13:46:45.406Z,5.65
2023-10-23T13:49:39.643Z,6.00
2023-10-23T13:52:27.533Z,5.63
2023-10-23T13:55:17.071Z,6.93
2023-10-23T13:57:49.656Z,9.10
2023-10-23T14:00:23.550Z,11.00
2023-10-23T14:03:05.784Z,6.45
2023-10-23T14:05:52.649Z,7.53
2023-10-23T14:08:31.976Z,5.40
2023-10-23T14:11:59.525Z,6.97
2023-10-23T14:14:25.052Z,5.95
2023-10-23T14:16:58.507Z,7.70
2023-10-23T14:19:45.546Z,11.70
2023-10-23T14:22:32.688Z,6.05
2023-10-23T14:25:11.381Z,7.35
2023-10-23T14:27:46.936Z,10.20
2023-10-23T14:30:21.820Z,6.53
2023-10-23T14:32:55.651Z,6.07
2023-10-23T14:35:48.056Z,8.48
2023-10-23T14:38:25.115Z,9.82
2023-10-23T14:41:21.905Z,6.65
2023-10-23T14:43:57.335Z,7.22
2023-10-23T14:46:29.931Z,8.65
2023-10-23T14:49:04.828Z,8.55
2023-10-23T14:51:43.443Z,10.10
2023-10-23T14:54:22.529Z,8.80
2023-10-23T14:57:04.401Z,13.32
2023-10-23T22:07:51.809Z,21.70
2023-10-23T22:10:29.021Z,19.75
2023-10-23T22:13:02.834Z,18.35
2023-10-23T22:15:36.126Z,18.45
2023-10-23T22:18:10.763Z,23.85
2023-10-23T22:20:43.667Z,21.15
2023-10-23T22:23:19.732Z,22.17
2023-10-23T22:25:57.052Z,20.60
2023-10-23T22:28:32.145Z,21.33
2023-10-23T22:31:06.321Z,20.80
2023-10-23T22:33:40.138Z,25.02
2023-10-23T22:36:13.751Z,22.70
2023-10-23T22:38:50.260Z,21.70
2023-10-23T22:41:24.040Z,18.98
2023-10-23T22:43:56.297Z,25.13
2023-10-23T22:46:29.188Z,22.75
2023-10-23T22:49:01.683Z,22.27
2023-10-23T22:51:36.979Z,20.25
2023-10-23T22:54:13.035Z,19.40
2023-10-23T22:56:46.557Z,17.17
2023-10-23T22:59:19.578Z,17.42
2023-10-23T23:01:53.082Z,21.52
2023-10-23T23:04:26.807Z,19.50
2023-10-23T23:07:04.441Z,16.27
2023-10-23T23:09:41.932Z,18.65
2023-10-23T23:12:16.541Z,19.13
2023-10-23T23:14:51.521Z,21.45
2023-10-23T23:20:29.549Z,16.67
2023-10-23T23:23:04.096Z,17.63
2023-10-23T23:25:39.419Z,23.95
2023-10-23T23:28:12.622Z,22.70
2023-10-23T23:30:46.006Z,21.92
2023-10-23T23:33:19.457Z,23.48
2023-10-23T23:35:54.501Z,16.50
2023-10-23T23:38:27.974Z,18.73
2023-10-23T23:41:02.553Z,19.30
2023-10-23T23:43:37.074Z,17.38
2023-10-23T23:46:09.597Z,16.50
2023-10-23T23:48:41.808Z,17.77
2023-10-23T23:51:15.868Z,20.20
2023-10-23T23:53:48.246Z,20.23
2023-10-23T23:56:22.746Z,18.40
2023-10-23T23:58:54.823Z,17.27
